Time;durP1;ratioP1;P1;durP2;ratioP2;P2;SDS_P1;SDS_P2;PMS_P1;PMS_P2;Temp;Humidity;BMP_temperature;BMP_pressure;BME280_temperature;BME280_humidity;BME280_pressure;Samples;Min_cycle;Max_cycle;Signal;HPM_P1;HPM_P2
2023/11/01 00:02:17;;;;;;;7.95;3.67;;;13.00;91.40;;;;;;5031623;28;20532;-34
2023/11/01 00:04:42;;;;;;;7.70;3.40;;;13.00;91.40;;;;;;5031572;28;20113;-34
2023/11/01 00:07:08;;;;;;;7.93;3.20;;;13.00;91.40;;;;;;5031783;28;20041;-35
2023/11/01 00:09:34;;;;;;;9.57;3.55;;;12.90;91.40;;;;;;5031562;28;20481;-41
2023/11/01 00:12:00;;;;;;;4.93;3.35;;;13.00;91.40;;;;;;5031823;28;20125;-35
2023/11/01 00:14:26;;;;;;;6.53;3.25;;;13.00;91.40;;;;;;5031765;28;20032;-35
2023/11/01 00:16:51;;;;;;;7.72;3.38;;;13.00;91.40;;;;;;5031455;28;20029;-33
2023/11/01 00:19:17;;;;;;;6.38;3.20;;;13.00;91.40;;;;;;5031330;28;20371;-35
2023/11/01 00:21:42;;;;;;;6.40;3.20;;;13.00;91.40;;;;;;5031168;28;20037;-33
2023/11/01 00:24:08;;;;;;;7.13;2.95;;;13.00;91.40;;;;;;5031517;28;20037;-34
2023/11/01 00:26:33;;;;;;;6.75;2.40;;;12.90;91.40;;;;;;5031030;28;20044;-34
2023/11/01 00:28:59;;;;;;;7.43;3.30;;;13.00;91.40;;;;;;5031295;28;20064;-33
2023/11/01 00:31:25;;;;;;;6.13;2.85;;;12.90;91.40;;;;;;5031464;28;20056;-35
2023/11/01 00:33:50;;;;;;;6.32;3.10;;;12.90;91.40;;;;;;5031474;28;20389;-32
2023/11/01 00:36:16;;;;;;;5.07;2.67;;;12.90;91.40;;;;;;5031136;28;20477;-35
2023/11/01 00:38:42;;;;;;;5.88;2.53;;;12.90;91.40;;;;;;5031569;28;20144;-34
2023/11/01 00:41:07;;;;;;;5.97;2.85;;;13.00;91.40;;;;;;5030987;28;20059;-35
2023/11/01 00:43:33;;;;;;;6.78;2.80;;;12.90;91.40;;;;;;5029911;28;20042;-35
2023/11/01 00:45:59;;;;;;;5.07;2.88;;;12.90;91.40;;;;;;5030981;28;20031;-34
2023/11/01 00:48:24;;;;;;;5.32;2.50;;;13.00;91.40;;;;;;5031441;28;20033;-32
2023/11/01 00:50:50;;;;;;;7.50;2.72;;;13.00;91.40;;;;;;5031071;28;20345;-34
2023/11/01 00:53:16;;;;;;;7.93;2.60;;;13.00;91.40;;;;;;5031454;28;20087;-36
2023/11/01 00:55:41;;;;;;;7.15;2.80;;;13.00;91.40;;;;;;5030891;28;20037;-34
2023/11/01 00:58:07;;;;;;;3.75;2.50;;;13.00;91.40;;;;;;5031330;28;20095;-35
2023/11/01 01:00:32;;;;;;;6.63;3.00;;;13.00;91.30;;;;;;5031058;28;20090;-34
2023/11/01 01:02:58;;;;;;;6.50;2.40;;;13.00;91.30;;;;;;5031056;28;20018;-37
2023/11/01 01:05:24;;;;;;;5.93;2.72;;;13.00;91.30;;;;;;5031055;28;20053;-34
2023/11/01 01:07:49;;;;;;;5.57;2.80;;;13.10;91.30;;;;;;5030997;28;20110;-34
2023/11/01 01:10:15;;;;;;;4.85;2.60;;;13.10;91.30;;;;;;5031056;28;20025;-34
2023/11/01 01:12:41;;;;;;;8.38;2.88;;;13.00;91.30;;;;;;5030793;28;20038;-34
2023/11/01 01:15:07;;;;;;;7.53;3.00;;;13.10;91.30;;;;;;5030665;28;20055;-34
2023/11/01 01:17:33;;;;;;;8.07;2.60;;;13.10;91.30;;;;;;5030736;28;20029;-33
2023/11/01 01:19:58;;;;;;;6.05;2.88;;;13.00;91.30;;;;;;5031099;28;20091;-34
2023/11/01 01:22:24;;;;;;;6.88;2.67;;;13.10;91.30;;;;;;5030655;28;20474;-32
2023/11/01 01:24:50;;;;;;;6.38;2.85;;;13.00;91.30;;;;;;5030869;28;20029;-34
2023/11/01 01:27:15;;;;;;;4.30;2.90;;;13.10;91.30;;;;;;5030946;28;20091;-34
2023/11/01 01:29:41;;;;;;;5.55;2.60;;;13.00;91.30;;;;;;5030432;28;20096;-34
2023/11/01 01:32:07;;;;;;;5.80;3.03;;;13.10;91.30;;;;;;5032482;28;20112;-33
2023/11/01 01:34:32;;;;;;;5.97;2.70;;;13.00;91.30;;;;;;5034236;28;20080;-34
2023/11/01 01:36:58;;;;;;;6.03;2.90;;;13.00;91.30;;;;;;5034238;28;20052;-34
2023/11/01 01:39:23;;;;;;;6.93;2.90;;;13.00;91.30;;;;;;5034140;28;20034;-34
2023/11/01 01:41:49;;;;;;;5.90;2.80;;;13.00;91.30;;;;;;5034057;28;20035;-33
2023/11/01 01:44:15;;;;;;;6.97;2.83;;;13.00;91.30;;;;;;5034100;28;20042;-33
2023/11/01 01:46:41;;;;;;;6.47;2.85;;;13.00;91.30;;;;;;5033849;28;20030;-34
2023/11/01 01:49:06;;;;;;;7.20;2.70;;;13.00;91.30;;;;;;5034050;28;20040;-34
2023/11/01 01:51:34;;;;;;;7.35;2.60;;;13.00;91.30;;;;;;5033768;28;20025;-32
2023/11/01 01:54:01;;;;;;;6.35;2.70;;;13.00;91.40;;;;;;5034225;28;20048;-34
2023/11/01 01:56:28;;;;;;;7.57;2.60;;;13.00;91.40;;;;;;5034161;28;20049;-34
2023/11/01 01:58:54;;;;;;;7.35;2.97;;;13.00;91.40;;;;;;5034121;28;20458;-34
2023/11/01 02:01:26;;;;;;;4.22;2.28;;;13.00;91.40;;;;;;5033526;28;20132;-34
2023/11/01 02:03:52;;;;;;;7.43;2.75;;;13.00;91.40;;;;;;5033605;28;20477;-34
2023/11/01 02:06:17;;;;;;;5.43;2.33;;;12.90;91.30;;;;;;5033912;28;20025;-35
2023/11/01 02:08:43;;;;;;;6.93;2.25;;;12.90;91.40;;;;;;5032235;28;20037;-34
2023/11/01 02:11:08;;;;;;;7.85;2.70;;;12.90;91.40;;;;;;5033572;28;20038;-34
2023/11/01 02:13:34;;;;;;;6.75;2.13;;;12.90;91.40;;;;;;5033817;28;20137;-34
2023/11/01 02:16:00;;;;;;;6.38;2.88;;;12.90;91.40;;;;;;5033373;28;20348;-34
2023/11/01 02:18:25;;;;;;;6.28;2.50;;;12.80;91.40;;;;;;5033303;28;20029;-34
2023/11/01 02:20:52;;;;;;;7.10;2.40;;;12.80;91.40;;;;;;5033129;28;20057;-34
2023/11/01 02:23:22;;;;;;;5.20;2.30;;;12.80;91.40;;;;;;5033577;28;20434;-39
2023/11/01 02:25:47;;;;;;;7.35;2.88;;;12.80;91.40;;;;;;5033239;28;20022;-33
2023/11/01 02:28:15;;;;;;;5.13;2.63;;;12.70;91.40;;;;;;5033348;28;20075;-34
2023/11/01 02:30:42;;;;;;;8.73;2.42;;;12.80;91.40;;;;;;5033155;28;20498;-34
2023/11/01 02:33:08;;;;;;;5.03;2.30;;;12.70;91.40;;;;;;5033407;28;20053;-35
2023/11/01 02:35:34;;;;;;;5.28;2.10;;;12.70;91.40;;;;;;5032892;28;20025;-35
2023/11/01 02:37:59;;;;;;;8.90;2.40;;;12.80;91.40;;;;;;5033208;28;20121;-35
2023/11/01 02:40:25;;;;;;;4.57;2.20;;;12.80;91.40;;;;;;5031820;28;20053;-34
2023/11/01 02:42:55;;;;;;;5.65;2.00;;;12.70;91.40;;;;;;5032075;28;20091;-35
2023/11/01 02:45:21;;;;;;;4.93;2.15;;;12.70;91.40;;;;;;5033264;28;20033;-35
2023/11/01 02:47:48;;;;;;;8.10;2.50;;;12.70;91.50;;;;;;5031516;28;20109;-35
2023/11/01 02:50:16;;;;;;;4.47;1.95;;;12.70;91.50;;;;;;5033204;28;20132;-35
2023/11/01 02:52:42;;;;;;;6.53;2.45;;;12.70;91.50;;;;;;5033218;28;20036;-34
2023/11/01 02:55:09;;;;;;;4.07;2.10;;;12.70;91.50;;;;;;5032539;28;20029;-36
2023/11/01 02:57:35;;;;;;;4.78;2.17;;;12.70;91.50;;;;;;5033119;28;20072;-35
2023/11/01 03:00:06;;;;;;;4.35;1.92;;;12.70;91.50;;;;;;5032819;28;20029;-34
2023/11/01 03:02:35;;;;;;;4.07;1.60;;;12.70;91.70;;;;;;5032921;28;20485;-33
2023/11/01 03:05:01;;;;;;;4.28;1.95;;;12.70;91.40;;;;;;5032511;28;20116;-34
2023/11/01 03:07:27;;;;;;;5.90;2.13;;;12.70;91.40;;;;;;5032562;28;20449;-34
2023/11/01 03:09:53;;;;;;;3.83;1.85;;;12.70;91.40;;;;;;5032620;28;20067;-34
2023/11/01 03:12:19;;;;;;;3.08;1.63;;;12.70;91.50;;;;;;5031116;28;20029;-33
2023/11/01 03:14:44;;;;;;;4.63;1.95;;;12.70;91.50;;;;;;5032616;28;20034;-34
2023/11/01 03:17:10;;;;;;;4.43;1.73;;;12.70;91.50;;;;;;5032532;28;20021;-33
2023/11/01 03:19:39;;;;;;;6.97;1.88;;;12.70;91.50;;;;;;5032175;28;20504;-33
2023/11/01 03:22:05;;;;;;;4.13;1.77;;;12.70;91.50;;;;;;5032548;28;20367;-34
2023/11/01 03:24:31;;;;;;;6.13;1.58;;;12.70;91.50;;;;;;5032700;28;20032;-33
2023/11/01 03:26:57;;;;;;;4.90;1.75;;;12.70;91.50;;;;;;5031123;28;20022;-33
2023/11/01 03:29:24;;;;;;;2.83;1.60;;;12.70;91.60;;;;;;5031007;28;20067;-34
2023/11/01 03:31:49;;;;;;;4.40;2.00;;;12.70;91.60;;;;;;5030729;28;20053;-35
2023/11/01 03:34:15;;;;;;;4.00;1.60;;;12.70;91.60;;;;;;5031886;28;20470;-35
2023/11/01 03:36:40;;;;;;;3.38;1.63;;;12.70;91.60;;;;;;5032049;28;20031;-34
2023/11/01 03:39:07;;;;;;;4.70;1.85;;;12.70;91.60;;;;;;5031658;28;20045;-33
2023/11/01 03:41:33;;;;;;;3.90;1.60;;;12.70;91.60;;;;;;5029954;28;20040;-33
2023/11/01 03:43:59;;;;;;;4.15;1.63;;;12.70;91.50;;;;;;5030559;28;20033;-34
2023/11/01 03:46:25;;;;;;;2.60;1.90;;;12.60;91.60;;;;;;5030354;28;20037;-33
2023/11/01 03:48:50;;;;;;;5.43;2.08;;;12.70;91.60;;;;;;5030433;28;20486;-33
2023/11/01 03:51:16;;;;;;;5.80;1.75;;;12.70;91.60;;;;;;5031536;28;20026;-34
2023/11/01 03:53:41;;;;;;;5.85;1.90;;;12.60;91.60;;;;;;5031600;28;20395;-33
2023/11/01 03:56:07;;;;;;;4.45;1.92;;;12.70;91.60;;;;;;5031268;28;20022;-34
2023/11/01 03:58:33;;;;;;;3.90;2.25;;;12.70;91.60;;;;;;5031947;28;20108;-34
2023/11/01 04:00:59;;;;;;;5.18;2.20;;;12.70;91.60;;;;;;5031667;28;20484;-34
2023/11/01 04:03:26;;;;;;;5.63;2.30;;;12.70;91.60;;;;;;5031870;28;20049;-34
2023/11/01 04:05:53;;;;;;;4.80;1.92;;;12.70;91.60;;;;;;5031351;28;20022;-34
2023/11/01 04:08:18;;;;;;;2.90;1.80;;;12.70;91.60;;;;;;5031753;28;20390;-34
2023/11/01 04:10:45;;;;;;;5.00;1.95;;;12.70;91.60;;;;;;5031510;28;20029;-34
2023/11/01 04:13:11;;;;;;;5.38;2.00;;;12.70;91.60;;;;;;5031682;28;20017;-35
2023/11/01 04:15:36;;;;;;;5.05;2.10;;;12.60;91.60;;;;;;5031288;28;20386;-35
2023/11/01 04:18:02;;;;;;;2.38;1.77;;;12.60;91.60;;;;;;5030022;28;20382;-34
2023/11/01 04:20:27;;;;;;;3.70;1.90;;;12.70;91.70;;;;;;5031171;28;20029;-37
2023/11/01 04:22:53;;;;;;;2.95;1.77;;;12.70;91.70;;;;;;5031259;28;20478;-35
2023/11/01 04:25:19;;;;;;;4.22;1.80;;;12.70;91.70;;;;;;5031194;28;20394;-35
2023/11/01 04:27:44;;;;;;;3.90;1.77;;;12.60;91.70;;;;;;5031318;28;20040;-35
2023/11/01 04:30:12;;;;;;;2.63;1.70;;;12.60;91.70;;;;;;5031319;28;20183;-35
2023/11/01 04:32:38;;;;;;;2.25;1.50;;;12.60;91.70;;;;;;5029934;28;20402;-34
2023/11/01 04:35:09;;;;;;;2.03;1.70;;;12.60;91.80;;;;;;5031383;28;20061;-34
2023/11/01 04:37:38;;;;;;;3.83;1.85;;;12.60;91.80;;;;;;5031481;28;20028;-34
2023/11/01 04:40:09;;;;;;;5.25;2.03;;;12.60;91.90;;;;;;5031440;28;20111;-34
2023/11/01 04:42:42;;;;;;;2.17;1.60;;;12.60;91.90;;;;;;5031411;28;20103;-34
2023/11/01 04:45:12;;;;;;;2.28;1.40;;;12.60;91.90;;;;;;5030973;28;20044;-34
2023/11/01 04:47:44;;;;;;;2.70;1.60;;;12.60;91.90;;;;;;5031088;28;20432;-34
2023/11/01 04:50:11;;;;;;;1.67;1.42;;;12.60;91.90;;;;;;5031156;28;20036;-35
2023/11/01 04:52:40;;;;;;;1.95;1.70;;;12.60;91.90;;;;;;5031323;28;20540;-33
2023/11/01 04:55:08;;;;;;;2.25;1.30;;;12.70;91.90;;;;;;5030961;28;20067;-34
2023/11/01 04:57:33;;;;;;;1.98;1.20;;;12.60;92.00;;;;;;5030997;28;20021;-34
2023/11/01 04:59:59;;;;;;;1.40;1.30;;;12.70;92.00;;;;;;5031097;28;20022;-37
2023/11/01 05:02:25;;;;;;;1.48;1.38;;;12.70;92.30;;;;;;5031047;28;20029;-34
2023/11/01 05:04:51;;;;;;;1.60;1.50;;;12.60;92.00;;;;;;5031381;28;20108;-33
2023/11/01 05:07:16;;;;;;;2.72;1.30;;;12.70;92.00;;;;;;5033116;28;20026;-34
2023/11/01 05:09:42;;;;;;;1.70;1.40;;;12.70;92.00;;;;;;5034801;28;20032;-34
2023/11/01 05:12:08;;;;;;;1.40;1.10;;;12.60;92.00;;;;;;5035052;28;20604;-34
2023/11/01 05:14:33;;;;;;;2.00;1.38;;;12.70;92.00;;;;;;5035020;28;20500;-34
2023/11/01 05:16:59;;;;;;;1.80;1.42;;;12.70;92.00;;;;;;5034214;28;20024;-36
2023/11/01 05:19:25;;;;;;;1.73;1.50;;;12.70;92.00;;;;;;5033897;28;20022;-33
2023/11/01 05:21:51;;;;;;;1.75;1.50;;;12.70;92.10;;;;;;5034058;28;20036;-33
2023/11/01 05:24:16;;;;;;;2.08;1.60;;;12.70;92.00;;;;;;5034603;28;20026;-34
2023/11/01 05:26:42;;;;;;;2.38;1.70;;;12.80;92.10;;;;;;5033119;28;20032;-34
2023/11/01 05:29:08;;;;;;;2.10;1.90;;;12.80;92.10;;;;;;5034458;28;20026;-35
2023/11/01 05:31:34;;;;;;;4.38;1.77;;;12.80;92.10;;;;;;5034684;28;20030;-34
2023/11/01 05:34:00;;;;;;;1.83;1.73;;;12.80;92.10;;;;;;5034359;28;20033;-35
2023/11/01 05:36:26;;;;;;;3.17;1.92;;;12.80;92.10;;;;;;5034518;28;20049;-34
2023/11/01 05:38:52;;;;;;;2.08;1.80;;;12.80;92.10;;;;;;5034529;28;20080;-35
2023/11/01 05:41:18;;;;;;;3.50;1.83;;;12.90;92.10;;;;;;5034484;28;20096;-35
2023/11/01 05:43:44;;;;;;;3.40;2.08;;;12.90;92.10;;;;;;5034542;28;20112;-34
2023/11/01 05:46:09;;;;;;;2.50;2.30;;;12.90;92.20;;;;;;5034245;28;20049;-47
2023/11/01 05:48:35;;;;;;;4.03;2.35;;;12.90;92.20;;;;;;5034194;28;20079;-32
2023/11/01 05:51:02;;;;;;;3.47;2.45;;;12.90;92.20;;;;;;5034083;28;20501;-34
2023/11/01 05:53:27;;;;;;;5.55;3.00;;;12.90;92.20;;;;;;5034219;28;20022;-34
2023/11/01 05:55:53;;;;;;;5.15;3.40;;;13.00;92.30;;;;;;5033851;28;20496;-34
2023/11/01 05:58:19;;;;;;;3.75;2.65;;;13.00;92.30;;;;;;5034196;28;20047;-34
2023/11/01 06:00:45;;;;;;;3.92;2.50;;;13.00;92.30;;;;;;5033814;28;20022;-34
2023/11/01 06:03:11;;;;;;;2.75;2.17;;;13.00;92.30;;;;;;5034429;28;20021;-34
2023/11/01 06:05:38;;;;;;;3.72;2.22;;;13.00;92.30;;;;;;5033489;28;20025;-34
2023/11/01 06:08:06;;;;;;;3.58;2.00;;;13.00;92.20;;;;;;5033527;28;20013;-34
2023/11/01 06:10:32;;;;;;;3.83;2.20;;;13.10;92.30;;;;;;5034072;28;20155;-34
2023/11/01 06:12:58;;;;;;;4.55;2.67;;;13.10;92.30;;;;;;5033448;28;20152;-34
2023/11/01 06:15:24;;;;;;;3.45;2.15;;;13.10;92.30;;;;;;5033340;28;20113;-33
2023/11/01 06:17:50;;;;;;;3.15;2.10;;;13.10;92.30;;;;;;5033230;28;20148;-36
2023/11/01 06:20:16;;;;;;;5.10;2.33;;;13.10;92.30;;;;;;5033582;28;20079;-34
2023/11/01 06:22:41;;;;;;;6.50;2.60;;;13.10;92.30;;;;;;5033381;28;20474;-34
2023/11/01 06:25:08;;;;;;;4.32;2.25;;;13.10;92.30;;;;;;5033487;28;20116;-34
2023/11/01 06:27:35;;;;;;;6.00;2.83;;;13.20;92.30;;;;;;5033566;28;20544;-34
2023/11/01 06:30:01;;;;;;;5.93;2.60;;;13.20;92.30;;;;;;5033362;28;20476;-34
2023/11/01 06:32:26;;;;;;;5.38;2.20;;;13.20;92.30;;;;;;5033349;28;20029;-33
2023/11/01 06:34:52;;;;;;;8.73;2.22;;;13.20;92.30;;;;;;5032977;28;20099;-34
2023/11/01 06:37:18;;;;;;;6.95;2.35;;;13.20;92.30;;;;;;5033187;28;20032;-34
2023/11/01 06:39:43;;;;;;;7.63;2.55;;;13.20;92.30;;;;;;5033390;28;20022;-33
2023/11/01 06:42:09;;;;;;;9.02;3.03;;;13.20;92.30;;;;;;5031653;28;20029;-34
2023/11/01 06:44:34;;;;;;;6.05;2.53;;;13.30;92.30;;;;;;5033016;28;20037;-33
2023/11/01 06:47:00;;;;;;;3.35;1.80;;;13.30;92.30;;;;;;5032681;28;20061;-36
2023/11/01 06:49:25;;;;;;;6.75;2.05;;;13.30;92.30;;;;;;5033305;28;20029;-34
2023/11/01 06:51:51;;;;;;;5.20;2.03;;;13.30;92.30;;;;;;5032715;28;20029;-33
2023/11/01 06:54:16;;;;;;;4.03;2.00;;;13.30;92.30;;;;;;5033060;28;20500;-34
2023/11/01 06:56:45;;;;;;;3.40;2.05;;;13.30;92.30;;;;;;5032686;28;20033;-33
2023/11/01 06:59:13;;;;;;;7.65;2.17;;;13.30;92.30;;;;;;5032786;28;20018;-34
2023/11/01 07:01:38;;;;;;;7.32;2.20;;;13.40;92.30;;;;;;5032887;28;20017;-34
2023/11/01 07:04:04;;;;;;;6.18;1.95;;;13.40;92.30;;;;;;5032931;28;20032;-33
2023/11/01 07:06:30;;;;;;;4.28;1.80;;;13.40;92.30;;;;;;5032650;28;20469;-32
2023/11/01 07:08:56;;;;;;;5.30;2.13;;;13.40;92.30;;;;;;5032671;28;20049;-33
2023/11/01 07:11:24;;;;;;;4.78;2.10;;;13.40;92.30;;;;;;5032364;28;20022;-35
2023/11/01 07:13:49;;;;;;;4.93;2.17;;;13.40;92.20;;;;;;5032317;28;20029;-34
2023/11/01 07:16:15;;;;;;;5.53;2.10;;;13.40;92.20;;;;;;5032399;28;20108;-33
2023/11/01 07:18:40;;;;;;;8.80;2.40;;;13.50;92.20;;;;;;5032706;28;20466;-34
2023/11/01 07:21:09;;;;;;;8.55;2.42;;;13.50;92.20;;;;;;5032617;28;20022;-33
2023/11/01 07:23:35;;;;;;;9.43;2.20;;;13.50;92.20;;;;;;5032264;28;20030;-32
2023/11/01 07:26:00;;;;;;;10.55;2.55;;;13.50;92.20;;;;;;5032009;28;20394;-34
2023/11/01 07:28:26;;;;;;;8.30;2.88;;;13.50;92.10;;;;;;5030952;28;20021;-33
2023/11/01 07:30:51;;;;;;;8.18;2.38;;;13.50;92.10;;;;;;5031405;28;20642;-34
2023/11/01 07:33:18;;;;;;;5.07;2.25;;;13.50;92.10;;;;;;5032691;28;20029;-34
2023/11/01 07:35:43;;;;;;;7.82;2.30;;;13.60;92.10;;;;;;5032915;28;20160;-34
2023/11/01 07:38:09;;;;;;;7.50;2.33;;;13.60;92.10;;;;;;5032913;28;20108;-34
2023/11/01 07:40:35;;;;;;;6.65;2.03;;;13.60;92.10;;;;;;5032799;28;20033;-34
2023/11/01 07:43:00;;;;;;;6.82;2.03;;;13.60;92.10;;;;;;5032677;28;20468;-40
2023/11/01 07:45:26;;;;;;;8.13;2.15;;;13.60;92.10;;;;;;5032608;28;20036;-33
2023/11/01 07:47:51;;;;;;;6.60;2.20;;;13.60;92.10;;;;;;5031178;28;20029;-34
2023/11/01 07:50:17;;;;;;;6.03;1.98;;;13.60;92.00;;;;;;5032644;28;20025;-33
2023/11/01 07:52:43;;;;;;;7.28;2.05;;;13.60;92.10;;;;;;5032567;28;20120;-34
2023/11/01 07:55:10;;;;;;;11.25;2.33;;;13.60;92.10;;;;;;5032425;28;20029;-34
2023/11/01 07:57:35;;;;;;;6.53;1.95;;;13.60;92.00;;;;;;5032705;28;20370;-34
2023/11/01 08:00:03;;;;;;;8.10;1.88;;;13.60;92.00;;;;;;5032201;28;20080;-35
2023/11/01 08:02:29;;;;;;;9.05;2.40;;;13.60;92.00;;;;;;5032192;28;20048;-33
2023/11/01 08:04:55;;;;;;;7.70;1.95;;;13.60;92.00;;;;;;5032419;28;20022;-35
2023/11/01 08:07:20;;;;;;;5.15;1.85;;;13.60;92.00;;;;;;5032395;28;20041;-35
2023/11/01 08:09:47;;;;;;;7.90;1.98;;;13.70;91.90;;;;;;5032152;28;20021;-34
2023/11/01 08:12:12;;;;;;;5.55;2.13;;;13.70;91.90;;;;;;5032600;28;20033;-36
2023/11/01 08:14:38;;;;;;;8.13;1.90;;;13.70;91.90;;;;;;5032164;28;20048;-34
2023/11/01 08:17:04;;;;;;;10.40;1.85;;;13.80;91.90;;;;;;5031182;28;20025;-34
2023/11/01 08:19:29;;;;;;;8.52;2.00;;;13.80;91.90;;;;;;5031437;28;20394;-32
2023/11/01 08:21:55;;;;;;;6.38;1.67;;;13.80;91.80;;;;;;5031206;28;20394;-33
2023/11/01 08:24:21;;;;;;;5.20;1.77;;;13.80;91.80;;;;;;5031340;28;20029;-32
2023/11/01 08:26:46;;;;;;;5.55;1.73;;;13.90;91.80;;;;;;5031520;28;20026;-32
2023/11/01 08:29:12;;;;;;;7.85;1.60;;;13.90;91.80;;;;;;5031092;28;20401;-34
2023/11/01 08:31:37;;;;;;;8.38;1.85;;;13.90;91.70;;;;;;5031255;28;20183;-33
2023/11/01 08:34:03;;;;;;;8.63;1.77;;;13.90;91.70;;;;;;5031516;28;20028;-34
2023/11/01 08:36:28;;;;;;;4.18;1.67;;;14.00;91.70;;;;;;5030812;28;20800;-34
2023/11/01 08:38:54;;;;;;;7.97;2.33;;;14.00;91.60;;;;;;5031173;28;20018;-34
2023/11/01 08:41:20;;;;;;;3.92;1.52;;;14.00;91.60;;;;;;5031945;28;20018;-34
2023/11/01 08:43:46;;;;;;;7.45;1.88;;;14.00;91.50;;;;;;5035447;28;20446;-33
2023/11/01 08:46:12;;;;;;;5.22;1.35;;;14.10;91.50;;;;;;5035372;28;20052;-33
2023/11/01 08:48:38;;;;;;;7.13;2.25;;;14.10;91.80;;;;;;5035383;28;20108;-33
2023/11/01 08:51:04;;;;;;;5.03;1.70;;;14.10;91.40;;;;;;5035128;28;20112;-33
2023/11/01 08:53:29;;;;;;;6.47;1.85;;;14.20;91.40;;;;;;5035348;28;20025;-34
2023/11/01 08:55:55;;;;;;;5.38;1.88;;;14.10;91.40;;;;;;5035275;28;20416;-34
2023/11/01 08:58:21;;;;;;;4.05;1.60;;;14.20;91.40;;;;;;5035104;28;20393;-35
2023/11/01 09:00:46;;;;;;;7.85;1.70;;;14.20;91.30;;;;;;5034976;28;20024;-33
2023/11/01 09:03:13;;;;;;;4.68;1.58;;;14.20;91.30;;;;;;5034496;28;20025;-35
2023/11/01 09:05:39;;;;;;;6.43;1.70;;;14.20;91.30;;;;;;5035834;28;20033;-36
2023/11/01 09:08:04;;;;;;;7.00;1.83;;;14.20;91.30;;;;;;5033972;28;20033;-31
2023/11/01 09:10:30;;;;;;;6.78;2.25;;;14.20;91.20;;;;;;5035640;28;20037;-34
2023/11/01 09:12:56;;;;;;;7.40;1.63;;;14.20;91.20;;;;;;5035859;28;20109;-33
2023/11/01 09:15:22;;;;;;;5.28;1.80;;;14.20;91.10;;;;;;5035752;28;20032;-35
2023/11/01 09:17:47;;;;;;;5.68;1.77;;;14.20;91.10;;;;;;5035124;28;20545;-34
2023/11/01 09:20:13;;;;;;;9.07;2.03;;;14.20;91.10;;;;;;5034857;28;20067;-34
2023/11/01 09:22:40;;;;;;;5.63;1.63;;;14.30;91.10;;;;;;5034434;28;20509;-35
2023/11/01 09:25:06;;;;;;;8.23;1.90;;;14.30;91.10;;;;;;5033580;28;20074;-33
2023/11/01 09:27:32;;;;;;;5.95;1.50;;;14.30;91.00;;;;;;5034678;28;20048;-35
2023/11/01 09:29:57;;;;;;;5.88;1.63;;;14.40;91.00;;;;;;5032989;28;20502;-35
2023/11/01 09:32:23;;;;;;;7.05;1.75;;;14.40;91.00;;;;;;5034343;28;20370;-34
2023/11/01 09:34:48;;;;;;;5.53;1.65;;;14.50;90.90;;;;;;5034507;28;20644;-34
2023/11/01 09:37:14;;;;;;;4.13;1.40;;;14.50;90.90;;;;;;5034556;28;20496;-35
2023/11/01 09:39:39;;;;;;;11.18;1.85;;;14.50;90.80;;;;;;5034541;28;20026;-35
2023/11/01 09:42:23;;;;;;;10.38;1.70;;;14.50;90.80;;;;;;5034103;28;20024;-34
2023/11/01 09:44:55;;;;;;;3.65;1.45;;;14.50;90.70;;;;;;5032899;28;20460;-34
2023/11/01 09:47:24;;;;;;;6.40;1.40;;;14.60;90.70;;;;;;5034386;28;20518;-35
2023/11/01 09:49:50;;;;;;;5.50;1.50;;;14.60;90.70;;;;;;5034615;28;20033;-35
2023/11/01 09:52:16;;;;;;;5.53;1.38;;;14.60;90.60;;;;;;5033204;28;20481;-35
2023/11/01 09:54:42;;;;;;;6.65;1.75;;;14.70;90.60;;;;;;5033287;28;20021;-35
2023/11/01 09:57:11;;;;;;;7.18;1.70;;;14.70;90.50;;;;;;5033637;28;20026;-34
2023/11/01 09:59:38;;;;;;;6.40;1.40;;;14.70;90.40;;;;;;5034329;28;20152;-35
2023/11/01 10:02:07;;;;;;;3.70;1.20;;;14.70;90.70;;;;;;5033781;28;20022;-35
2023/11/01 10:04:34;;;;;;;5.80;1.30;;;14.70;90.40;;;;;;5033931;28;20028;-34
2023/11/01 10:07:00;;;;;;;6.68;1.60;;;14.80;90.60;;;;;;5033838;28;20086;-34
2023/11/01 10:09:26;;;;;;;3.72;1.30;;;14.70;90.30;;;;;;5033943;28;20432;-35
2023/11/01 10:11:53;;;;;;;4.93;1.65;;;14.80;90.30;;;;;;5033966;28;20472;-35
2023/11/01 10:14:31;;;;;;;2.72;1.00;;;14.80;90.20;;;;;;5033777;28;20029;-35
2023/11/01 10:16:57;;;;;;;5.00;1.50;;;14.80;90.20;;;;;;5033734;28;20453;-35
2023/11/01 10:19:24;;;;;;;5.07;1.42;;;14.80;90.10;;;;;;5032418;28;20111;-34
2023/11/01 10:21:51;;;;;;;5.93;1.50;;;14.80;90.10;;;;;;5033729;28;20030;-35
2023/11/01 10:24:18;;;;;;;6.38;1.50;;;14.80;90.10;;;;;;5033824;28;20299;-35
2023/11/01 10:26:43;;;;;;;11.18;2.40;;;14.80;90.00;;;;;;5033454;28;20032;-35
2023/11/01 10:29:09;;;;;;;6.85;1.70;;;14.80;90.00;;;;;;5033573;28;20030;-35
2023/11/01 10:31:34;;;;;;;4.85;1.35;;;14.90;90.00;;;;;;5033474;28;20497;-35
2023/11/01 10:34:13;;;;;;;6.35;1.42;;;14.80;90.00;;;;;;5033206;28;20116;-33
2023/11/01 10:36:52;;;;;;;4.90;1.33;;;14.90;90.00;;;;;;5031949;28;20386;-34
2023/11/01 10:39:19;;;;;;;5.25;1.35;;;14.90;89.90;;;;;;5032931;28;20159;-34
2023/11/01 10:41:49;;;;;;;5.15;1.30;;;14.90;89.90;;;;;;5033114;28;20105;-34
2023/11/01 10:44:16;;;;;;;5.38;1.50;;;14.90;89.80;;;;;;5033406;28;20355;-34
2023/11/01 10:46:42;;;;;;;4.95;1.00;;;14.90;89.70;;;;;;5032917;28;20108;-35
2023/11/01 10:49:09;;;;;;;3.72;1.40;;;15.00;89.70;;;;;;5032938;28;20056;-33
2023/11/01 10:51:37;;;;;;;2.88;1.25;;;15.00;89.40;;;;;;5032989;28;20053;-34
2023/11/01 10:54:03;;;;;;;6.05;1.55;;;15.10;89.40;;;;;;5032960;28;20040;-35
2023/11/01 10:56:28;;;;;;;6.38;1.50;;;15.10;89.20;;;;;;5032716;28;20101;-34
2023/11/01 10:59:01;;;;;;;4.07;1.20;;;15.10;89.10;;;;;;5031613;28;20026;-35
2023/11/01 11:01:33;;;;;;;6.30;1.55;;;15.10;89.00;;;;;;5032433;28;20420;-35
2023/11/01 11:04:22;;;;;;;3.75;1.30;;;15.20;89.00;;;;;;5031912;28;20037;-35
2023/11/01 11:07:32;;;;;;;3.78;1.20;;;15.20;88.90;;;;;;5032812;28;20030;-34
2023/11/01 11:10:23;;;;;;;4.57;1.30;;;15.20;88.70;;;;;;5040479;28;20253;-34
2023/11/01 11:13:16;;;;;;;6.43;1.60;;;15.20;88.70;;;;;;5032793;28;20473;-34
2023/11/01 11:15:51;;;;;;;3.95;1.33;;;15.20;88.60;;;;;;5032224;28;20037;-34
2023/11/01 11:18:21;;;;;;;4.57;1.42;;;15.20;88.50;;;;;;5032604;28;20034;-34
2023/11/01 11:20:58;;;;;;;5.18;1.40;;;15.30;88.50;;;;;;5032349;28;20109;-34
2023/11/01 11:23:35;;;;;;;4.25;1.27;;;15.30;88.40;;;;;;5032730;28;20029;-34
2023/11/01 11:26:02;;;;;;;3.60;1.33;;;15.40;88.20;;;;;;5032429;28;20454;-35
2023/11/01 11:28:40;;;;;;;4.75;1.60;;;15.40;88.10;;;;;;5032396;28;20095;-34
2023/11/01 11:31:08;;;;;;;4.05;1.30;;;15.50;88.50;;;;;;5031857;28;20049;-34
2023/11/01 11:33:34;;;;;;;5.85;1.50;;;15.50;87.80;;;;;;5032117;28;20110;-33
2023/11/01 11:36:20;;;;;;;6.18;1.73;;;15.40;87.80;;;;;;5031906;28;20028;-34
2023/11/01 11:38:52;;;;;;;3.72;1.42;;;15.40;87.50;;;;;;5032080;28;20048;-33
2023/11/01 11:41:46;;;;;;;3.03;1.27;;;15.40;87.50;;;;;;5031984;28;20116;-34
2023/11/01 11:44:13;;;;;;;3.78;1.40;;;15.40;88.10;;;;;;5033870;28;20044;-35
2023/11/01 11:46:46;;;;;;;5.18;1.30;;;15.50;87.40;;;;;;5031880;28;20034;-34
2023/11/01 11:49:26;;;;;;;4.78;1.25;;;15.50;87.40;;;;;;5032118;28;20079;-34
2023/11/01 11:52:13;;;;;;;4.53;1.10;;;15.50;87.20;;;;;;5031695;28;20105;-34
2023/11/01 11:54:39;;;;;;;8.18;1.77;;;15.60;87.00;;;;;;5032001;28;20215;-34
2023/11/01 11:57:11;;;;;;;2.97;1.15;;;15.70;86.90;;;;;;5031798;28;20474;-33
2023/11/01 11:59:37;;;;;;;4.57;1.23;;;15.70;86.70;;;;;;5031805;28;20470;-36
2023/11/01 12:02:10;;;;;;;6.38;1.52;;;15.70;86.50;;;;;;5031801;28;20045;-35
2023/11/01 12:04:37;;;;;;;2.65;1.02;;;15.80;86.30;;;;;;5031793;28;20033;-34
2023/11/01 12:07:03;;;;;;;4.28;1.20;;;15.80;86.20;;;;;;5031412;28;20083;-36
2023/11/01 12:09:30;;;;;;;5.40;1.20;;;15.80;86.20;;;;;;5031626;28;20033;-35
2023/11/01 12:11:57;;;;;;;6.13;1.40;;;16.00;86.20;;;;;;5031884;28;20038;-34
2023/11/01 12:14:25;;;;;;;3.50;1.25;;;16.00;86.00;;;;;;5031470;28;20033;-35
2023/11/01 12:16:53;;;;;;;4.00;1.30;;;16.10;85.70;;;;;;5031050;28;20556;-35
2023/11/01 12:19:21;;;;;;;3.92;1.20;;;16.20;85.30;;;;;;5031356;28;20028;-35
2023/11/01 12:21:55;;;;;;;4.28;1.33;;;16.30;85.10;;;;;;5031402;28;20116;-34
2023/11/01 12:24:23;;;;;;;2.83;1.10;;;16.30;84.70;;;;;;5031708;28;20060;-37
2023/11/01 12:27:17;;;;;;;2.65;0.98;;;16.30;84.70;;;;;;5031657;28;20366;-35
2023/11/01 12:29:51;;;;;;;3.15;1.02;;;16.30;84.70;;;;;;5031360;28;20038;-35
2023/11/01 12:32:23;;;;;;;2.40;1.15;;;16.20;84.70;;;;;;5031293;28;20033;-34
2023/11/01 12:34:49;;;;;;;2.70;1.10;;;16.20;84.70;;;;;;5031491;28;20410;-35
2023/11/01 12:37:26;;;;;;;3.55;1.10;;;16.20;84.60;;;;;;5031526;28;20025;-35
2023/11/01 12:40:15;;;;;;;3.10;0.95;;;16.10;84.70;;;;;;5031367;28;20033;-33
2023/11/01 12:42:49;;;;;;;2.95;1.00;;;16.00;84.80;;;;;;5031415;28;20022;-35
2023/11/01 12:45:15;;;;;;;3.67;0.90;;;16.00;84.80;;;;;;5031461;28;20474;-35
2023/11/01 12:47:45;;;;;;;4.47;1.25;;;16.00;85.50;;;;;;5031415;28;20022;-35